Port Simpson, Canada
Current Conditions -  °F | °C
As of 3:00 PM on Thursday 27 Nov 2014 (Local Time) from CYPR Reporting Station
Overcast Overcast  
Wind Chill: 36°   Ceiling: 6500
Heat Index: 36°   Visibility: 9mi
Dew Point: 30°   Wind: 2mph
Humidity: 81%   Direction: NA
Pressure: 29.61"   Gusts: NA
Location:  54.55°N, 130.42°W
Report Text: CYPR 272300Z AUTO VRB02KT 9SM BKN065 OVC083 02/M01 A2961 RMK SLP027
Loading
Personal Weather Stations






























Interactive Weather Map New forecast layout! Learn more

10-Day Weather Forecast

Advertisements
Track Severe Weather on mobile